Time;durP1;ratioP1;P1;durP2;ratioP2;P2;SDS_P1;SDS_P2;PMS_P1;PMS_P2;Temp;Humidity;BMP_temperature;BMP_pressure;BME280_temperature;BME280_humidity;BME280_pressure;Samples;Min_cycle;Max_cycle;Signal;HPM_P1;HPM_P2
2022/03/11 00:01:18;;;;;;;16.42;10.30;;;6.80;99.90;;;;;;5052787;28;20036;-42
2022/03/11 00:03:44;;;;;;;17.08;9.98;;;6.70;99.90;;;;;;5051651;28;20146;-42
2022/03/11 00:06:09;;;;;;;16.98;10.32;;;6.70;99.90;;;;;;5052494;28;20159;-44
2022/03/11 00:08:35;;;;;;;16.42;10.75;;;6.80;99.90;;;;;;5051533;28;20056;-42
2022/03/11 00:11:01;;;;;;;16.92;9.93;;;6.70;99.90;;;;;;5052669;28;20041;-40
2022/03/11 00:13:27;;;;;;;20.05;10.55;;;6.70;99.90;;;;;;5052589;28;20040;-40
2022/03/11 00:15:52;;;;;;;16.45;9.98;;;6.70;99.90;;;;;;5052953;28;20057;-41
2022/03/11 00:18:20;;;;;;;16.45;10.93;;;6.70;99.90;;;;;;5052680;28;20048;-42
2022/03/11 00:20:45;;;;;;;17.52;10.30;;;6.70;99.90;;;;;;5052641;28;20033;-43
2022/03/11 00:23:11;;;;;;;17.83;9.98;;;6.60;99.90;;;;;;5052558;28;20041;-42
2022/03/11 00:25:37;;;;;;;17.52;9.75;;;6.60;99.90;;;;;;5052369;28;20041;-43
2022/03/11 00:28:03;;;;;;;16.17;10.02;;;6.60;99.90;;;;;;5050481;28;20040;-44
2022/03/11 00:30:29;;;;;;;22.05;10.98;;;6.60;99.90;;;;;;5052661;28;20037;-43
2022/03/11 00:32:55;;;;;;;17.23;10.65;;;6.50;99.90;;;;;;5052261;28;20068;-44
2022/03/11 00:35:21;;;;;;;17.15;10.02;;;6.50;99.90;;;;;;5052357;28;20155;-42
2022/03/11 00:37:47;;;;;;;18.25;10.15;;;6.50;99.90;;;;;;5052334;28;20548;-42
2022/03/11 00:40:13;;;;;;;17.73;10.27;;;6.50;99.90;;;;;;5052453;28;20032;-42
2022/03/11 00:42:40;;;;;;;16.70;9.60;;;6.50;99.90;;;;;;5051987;28;20479;-44
2022/03/11 00:45:06;;;;;;;15.20;9.07;;;6.50;99.90;;;;;;5052017;28;20039;-44
2022/03/11 00:47:32;;;;;;;16.50;9.95;;;6.40;99.90;;;;;;5052245;28;20029;-43
2022/03/11 00:49:57;;;;;;;20.55;10.18;;;6.40;99.90;;;;;;5052274;28;20484;-41
2022/03/11 00:52:23;;;;;;;17.92;10.05;;;6.40;99.90;;;;;;5052286;28;20494;-42
2022/03/11 00:54:49;;;;;;;19.33;9.43;;;6.30;99.90;;;;;;5051727;28;20041;-40
2022/03/11 00:57:16;;;;;;;17.10;10.38;;;6.30;99.90;;;;;;5051563;28;20037;-44
2022/03/11 00:59:42;;;;;;;20.15;9.85;;;6.20;99.90;;;;;;5052045;28;20052;-40
2022/03/11 01:02:08;;;;;;;16.70;9.20;;;6.20;99.90;;;;;;5051024;28;20049;-43
2022/03/11 01:04:33;;;;;;;16.08;10.23;;;6.20;99.90;;;;;;5051896;28;20085;-41
2022/03/11 01:06:59;;;;;;;15.27;9.55;;;6.10;99.90;;;;;;5051647;28;20477;-43
2022/03/11 01:09:25;;;;;;;17.60;10.48;;;6.10;99.90;;;;;;5050406;28;20045;-42
2022/03/11 01:11:51;;;;;;;18.58;10.85;;;6.10;99.90;;;;;;5051512;28;20037;-41
2022/03/11 01:14:16;;;;;;;15.77;10.10;;;6.00;99.90;;;;;;5050587;28;20048;-41
2022/03/11 01:16:42;;;;;;;17.92;10.45;;;5.90;99.90;;;;;;5051736;28;20036;-42
2022/03/11 01:19:08;;;;;;;17.48;10.43;;;5.90;99.90;;;;;;5051205;28;20040;-42
2022/03/11 01:21:33;;;;;;;18.00;10.02;;;5.90;99.90;;;;;;5051644;28;20115;-42
2022/03/11 01:23:59;;;;;;;19.65;10.70;;;5.80;99.90;;;;;;5051543;28;20029;-43
2022/03/11 01:26:25;;;;;;;17.33;10.60;;;5.70;99.90;;;;;;5051001;28;20051;-44
2022/03/11 01:28:51;;;;;;;19.95;11.10;;;5.60;99.90;;;;;;5051799;28;20039;-41
2022/03/11 01:31:17;;;;;;;19.45;11.10;;;5.60;99.90;;;;;;5049652;28;20037;-41
2022/03/11 01:33:44;;;;;;;17.58;10.18;;;5.50;99.90;;;;;;5050776;28;20091;-41
2022/03/11 01:36:11;;;;;;;19.02;11.23;;;5.50;99.90;;;;;;5050957;28;20028;-43
2022/03/11 01:38:37;;;;;;;18.83;10.07;;;5.40;99.90;;;;;;5051227;28;20136;-42
2022/03/11 01:41:03;;;;;;;17.27;10.13;;;5.40;99.90;;;;;;5051208;28;20033;-44
2022/03/11 01:43:29;;;;;;;17.75;10.27;;;5.30;99.90;;;;;;5047871;28;20074;-43
2022/03/11 01:45:56;;;;;;;16.35;9.88;;;5.30;99.90;;;;;;5050714;28;20103;-42
2022/03/11 01:48:22;;;;;;;16.40;10.35;;;5.30;99.90;;;;;;5050104;28;20076;-43
2022/03/11 01:50:48;;;;;;;20.05;10.63;;;5.20;99.90;;;;;;5051073;28;20083;-43
2022/03/11 01:53:14;;;;;;;16.08;9.63;;;5.20;99.90;;;;;;5050751;28;20092;-44
2022/03/11 01:55:40;;;;;;;15.68;9.95;;;5.20;99.90;;;;;;5049283;28;20072;-44
2022/03/11 01:58:07;;;;;;;17.35;9.68;;;5.10;99.90;;;;;;5050232;28;20427;-40
2022/03/11 02:00:40;;;;;;;19.63;9.85;;;5.10;99.90;;;;;;5050896;28;20028;-44
2022/03/11 02:03:07;;;;;;;16.65;10.15;;;5.00;99.90;;;;;;5050831;28;20037;-44
2022/03/11 02:05:33;;;;;;;17.45;9.93;;;5.00;99.90;;;;;;5050651;28;20377;-42
2022/03/11 02:07:59;;;;;;;18.25;10.05;;;5.00;99.90;;;;;;5050491;28;20091;-43
2022/03/11 02:10:25;;;;;;;16.23;9.23;;;4.90;99.90;;;;;;5050338;28;20500;-41
2022/03/11 02:12:51;;;;;;;18.40;10.27;;;4.90;99.90;;;;;;5050067;28;20037;-41
2022/03/11 02:15:17;;;;;;;17.98;10.48;;;4.90;99.90;;;;;;5049290;28;20044;-41
2022/03/11 02:17:42;;;;;;;15.50;10.13;;;4.80;99.90;;;;;;5050440;28;20128;-44
2022/03/11 02:20:09;;;;;;;14.73;9.40;;;4.80;99.90;;;;;;5050661;28;20059;-42
2022/03/11 02:22:38;;;;;;;19.15;9.80;;;4.80;99.90;;;;;;5050062;28;20087;-49
2022/03/11 02:25:07;;;;;;;19.67;9.90;;;4.80;99.90;;;;;;5050489;28;20519;-42
2022/03/11 02:27:37;;;;;;;16.85;9.65;;;4.70;99.90;;;;;;5049718;28;20036;-46
2022/03/11 02:30:19;;;;;;;15.77;9.80;;;4.70;99.90;;;;;;5050289;28;20040;-41
2022/03/11 02:32:45;;;;;;;16.70;9.93;;;4.70;99.90;;;;;;5064548;28;20107;-42
2022/03/11 02:35:11;;;;;;;17.55;9.80;;;4.60;99.90;;;;;;5050543;28;20048;-40
2022/03/11 02:37:37;;;;;;;19.52;9.68;;;4.60;99.90;;;;;;5050042;28;20128;-44
2022/03/11 02:40:04;;;;;;;17.45;8.95;;;4.60;99.90;;;;;;5050119;28;20120;-43
2022/03/11 02:42:30;;;;;;;16.30;9.68;;;4.60;99.90;;;;;;5050208;28;20049;-44
2022/03/11 02:44:59;;;;;;;22.00;10.60;;;4.60;99.90;;;;;;5050164;28;20112;-42
2022/03/11 02:47:26;;;;;;;18.33;10.38;;;4.50;99.90;;;;;;5049578;28;20044;-43
2022/03/11 02:49:51;;;;;;;21.10;9.93;;;4.50;99.90;;;;;;5050117;28;20056;-44
2022/03/11 02:52:17;;;;;;;17.65;10.13;;;4.50;99.90;;;;;;5031723;28;20048;-41
2022/03/11 02:54:43;;;;;;;17.92;10.93;;;4.40;99.90;;;;;;5050094;28;20041;-44
2022/03/11 02:57:08;;;;;;;17.73;10.27;;;4.30;99.90;;;;;;5049609;28;20498;-41
2022/03/11 02:59:34;;;;;;;18.25;10.00;;;4.30;99.90;;;;;;5048536;28;20156;-44
2022/03/11 03:02:00;;;;;;;17.75;10.35;;;4.30;99.90;;;;;;5048303;28;20041;-41
2022/03/11 03:04:25;;;;;;;15.98;10.02;;;4.30;99.90;;;;;;5050056;28;20078;-43
2022/03/11 03:06:52;;;;;;;20.38;10.68;;;4.30;99.90;;;;;;5049604;28;20138;-42
2022/03/11 03:09:17;;;;;;;19.27;10.68;;;4.30;99.90;;;;;;5049662;28;20033;-42
2022/03/11 03:11:43;;;;;;;19.92;10.90;;;4.20;99.90;;;;;;5045666;28;20064;-40
2022/03/11 03:14:09;;;;;;;21.38;11.57;;;4.30;99.90;;;;;;5048594;28;20503;-45
2022/03/11 03:16:34;;;;;;;19.75;11.32;;;4.20;99.90;;;;;;5049757;28;20431;-42
2022/03/11 03:19:00;;;;;;;18.83;10.57;;;4.20;99.90;;;;;;5049749;28;20079;-42
2022/03/11 03:21:27;;;;;;;18.45;10.85;;;4.20;99.90;;;;;;5049650;28;20041;-44
2022/03/11 03:23:53;;;;;;;19.48;11.07;;;4.20;99.90;;;;;;5049793;28;20033;-40
2022/03/11 03:26:19;;;;;;;18.48;11.57;;;4.20;99.90;;;;;;5053102;28;20037;-41
2022/03/11 03:28:45;;;;;;;17.80;10.90;;;4.20;99.90;;;;;;5052470;28;20041;-43
2022/03/11 03:31:11;;;;;;;18.30;11.30;;;4.20;99.90;;;;;;5051953;28;20045;-43
2022/03/11 03:33:37;;;;;;;20.33;11.32;;;4.20;99.90;;;;;;5053296;28;20065;-42
2022/03/11 03:36:03;;;;;;;21.40;11.63;;;4.20;99.90;;;;;;5053447;28;20130;-42
2022/03/11 03:38:29;;;;;;;20.48;11.32;;;4.10;99.90;;;;;;5053558;28;20033;-41
2022/03/11 03:40:54;;;;;;;19.27;11.30;;;4.10;99.90;;;;;;5052000;28;20063;-39
2022/03/11 03:43:20;;;;;;;20.20;11.25;;;4.10;99.90;;;;;;5053462;28;20221;-44
2022/03/11 03:45:46;;;;;;;18.58;11.32;;;4.10;99.90;;;;;;5053444;28;20128;-42
2022/03/11 03:48:12;;;;;;;20.33;11.82;;;4.10;99.90;;;;;;5053518;28;20037;-42
2022/03/11 03:50:37;;;;;;;20.42;11.40;;;4.00;99.90;;;;;;5051269;28;20063;-42
2022/03/11 03:53:04;;;;;;;20.02;11.23;;;4.00;99.90;;;;;;5051928;28;20040;-44
2022/03/11 03:55:30;;;;;;;19.88;11.10;;;4.00;99.90;;;;;;5053256;28;20039;-41
2022/03/11 03:57:55;;;;;;;18.30;10.73;;;4.00;99.90;;;;;;5052279;28;20037;-45
2022/03/11 04:00:22;;;;;;;21.25;11.75;;;4.00;99.90;;;;;;5053182;28;20044;-42
2022/03/11 04:02:49;;;;;;;17.20;10.63;;;3.90;99.90;;;;;;5053041;28;20045;-40
2022/03/11 04:05:15;;;;;;;21.23;12.40;;;3.90;99.90;;;;;;5051461;28;20052;-44
2022/03/11 04:07:42;;;;;;;20.15;11.60;;;4.00;99.90;;;;;;5050800;28;20461;-43
2022/03/11 04:10:09;;;;;;;18.98;11.60;;;3.90;99.90;;;;;;5052975;28;20037;-43
2022/03/11 04:12:35;;;;;;;21.95;11.93;;;3.90;99.90;;;;;;5052713;28;20043;-43
2022/03/11 04:15:01;;;;;;;19.67;11.60;;;3.80;99.90;;;;;;5053041;28;20029;-42
2022/03/11 04:17:27;;;;;;;23.23;11.77;;;3.80;99.90;;;;;;5053019;28;20033;-41
2022/03/11 04:19:53;;;;;;;19.83;10.77;;;3.70;99.90;;;;;;5052821;28;20036;-45
2022/03/11 04:22:19;;;;;;;19.65;11.25;;;3.70;99.90;;;;;;5052851;28;20048;-43
2022/03/11 04:24:44;;;;;;;19.73;11.27;;;3.70;99.90;;;;;;5050800;28;20037;-42
2022/03/11 04:27:10;;;;;;;19.92;12.07;;;3.70;99.90;;;;;;5052357;28;20384;-40
2022/03/11 04:29:37;;;;;;;22.92;11.30;;;3.70;99.90;;;;;;5051447;28;20102;-45
2022/03/11 04:32:04;;;;;;;20.90;11.85;;;3.60;99.90;;;;;;5052132;28;20064;-42
2022/03/11 04:34:29;;;;;;;20.48;11.23;;;3.60;99.90;;;;;;5052608;28;20091;-41
2022/03/11 04:36:56;;;;;;;20.45;12.30;;;3.60;99.90;;;;;;5050948;28;20040;-44
2022/03/11 04:39:26;;;;;;;20.63;12.07;;;3.50;99.90;;;;;;5052513;28;20033;-43
2022/03/11 04:41:53;;;;;;;17.52;11.23;;;3.50;99.90;;;;;;5052699;28;20040;-41
2022/03/11 04:44:19;;;;;;;21.00;12.38;;;3.50;99.90;;;;;;5052549;28;20102;-41
2022/03/11 04:46:46;;;;;;;19.98;11.95;;;3.50;99.90;;;;;;5052360;28;20484;-42
2022/03/11 04:49:12;;;;;;;20.65;11.75;;;3.40;99.90;;;;;;5052353;28;20052;-44
2022/03/11 04:51:38;;;;;;;21.50;12.20;;;3.50;99.90;;;;;;5050661;28;20489;-42
2022/03/11 04:54:05;;;;;;;21.77;12.13;;;3.40;99.90;;;;;;5052230;28;20053;-41
2022/03/11 04:56:32;;;;;;;22.55;12.10;;;3.40;99.90;;;;;;5051689;28;20037;-41
2022/03/11 04:58:58;;;;;;;21.77;11.98;;;3.30;99.90;;;;;;5051998;28;20044;-41
2022/03/11 05:01:24;;;;;;;21.15;12.15;;;3.40;99.90;;;;;;5050558;28;20468;-42
2022/03/11 05:03:50;;;;;;;20.77;12.50;;;3.30;99.90;;;;;;5050751;28;20532;-42
2022/03/11 05:06:16;;;;;;;19.45;11.85;;;3.20;99.90;;;;;;5051243;28;20159;-44
2022/03/11 05:08:42;;;;;;;21.55;12.93;;;3.30;99.90;;;;;;5051789;28;20128;-42
2022/03/11 05:11:08;;;;;;;21.83;11.95;;;3.30;99.90;;;;;;5051956;28;20436;-46
2022/03/11 05:13:33;;;;;;;21.98;12.82;;;3.20;99.90;;;;;;5049857;28;20041;-43
2022/03/11 05:16:00;;;;;;;24.17;13.07;;;3.20;99.90;;;;;;5050893;28;20044;-43
2022/03/11 05:18:25;;;;;;;23.33;12.95;;;3.20;99.90;;;;;;5050802;28;20120;-45
2022/03/11 05:20:51;;;;;;;21.70;12.65;;;3.20;99.90;;;;;;5050901;28;20167;-46
2022/03/11 05:23:17;;;;;;;23.20;13.52;;;3.10;99.90;;;;;;5051339;28;20055;-42
2022/03/11 05:25:43;;;;;;;22.90;12.55;;;3.20;99.90;;;;;;5051597;28;20040;-41
2022/03/11 05:28:09;;;;;;;23.65;13.30;;;3.10;99.90;;;;;;5050919;28;20106;-42
2022/03/11 05:30:36;;;;;;;22.98;12.95;;;3.10;99.90;;;;;;5051362;28;20435;-42
2022/03/11 05:33:03;;;;;;;23.63;13.13;;;3.20;99.90;;;;;;5050919;28;20045;-40
2022/03/11 05:35:29;;;;;;;20.83;12.93;;;3.10;99.90;;;;;;5051222;28;20527;-43
2022/03/11 05:37:55;;;;;;;23.45;13.10;;;3.00;99.90;;;;;;5051156;28;20025;-42
2022/03/11 05:40:20;;;;;;;24.50;14.13;;;3.10;99.90;;;;;;5051244;28;20041;-42
2022/03/11 05:42:46;;;;;;;20.27;12.07;;;3.10;99.90;;;;;;5050922;28;20078;-42
2022/03/11 05:45:12;;;;;;;22.40;13.23;;;3.00;99.90;;;;;;5049757;28;20051;-42
2022/03/11 05:47:39;;;;;;;25.90;13.73;;;3.00;99.90;;;;;;5050820;28;20102;-40
2022/03/11 05:50:05;;;;;;;22.67;13.68;;;3.00;99.90;;;;;;5050927;28;20447;-42
2022/03/11 05:52:34;;;;;;;23.85;13.00;;;3.00;99.90;;;;;;5051132;28;20065;-42
2022/03/11 05:54:59;;;;;;;24.73;14.40;;;3.00;99.90;;;;;;5050507;28;20045;-43
2022/03/11 05:57:25;;;;;;;23.98;13.93;;;2.90;99.90;;;;;;5050128;28;20040;-41
2022/03/11 05:59:51;;;;;;;25.67;13.88;;;2.90;99.90;;;;;;5050572;28;20041;-41
2022/03/11 06:02:16;;;;;;;24.13;14.27;;;2.90;99.90;;;;;;5050900;28;20048;-41
2022/03/11 06:04:42;;;;;;;22.17;13.38;;;2.90;99.90;;;;;;5050592;28;20040;-42
2022/03/11 06:07:08;;;;;;;24.67;14.68;;;2.90;99.90;;;;;;5049331;28;20036;-41
2022/03/11 06:09:33;;;;;;;24.48;14.48;;;2.80;99.90;;;;;;5050792;28;20403;-44
2022/03/11 06:11:59;;;;;;;25.98;14.20;;;2.80;99.90;;;;;;5050529;28;20064;-41
2022/03/11 06:14:25;;;;;;;22.73;13.88;;;2.90;99.90;;;;;;5050634;28;20442;-43
2022/03/11 06:16:50;;;;;;;23.42;14.00;;;2.90;99.90;;;;;;5050575;28;20033;-43
2022/03/11 06:19:16;;;;;;;23.65;14.65;;;2.90;99.90;;;;;;5050079;28;20388;-41
2022/03/11 06:21:42;;;;;;;26.10;14.48;;;2.90;99.90;;;;;;5050068;28;20040;-42
2022/03/11 06:24:07;;;;;;;25.58;14.60;;;2.80;99.90;;;;;;5050129;28;20040;-42
2022/03/11 06:26:33;;;;;;;27.00;15.13;;;2.80;99.90;;;;;;5049738;28;20041;-40
2022/03/11 06:28:59;;;;;;;25.48;14.35;;;2.80;99.90;;;;;;5050231;28;20397;-42
2022/03/11 06:31:25;;;;;;;28.08;14.90;;;2.80;99.90;;;;;;5050431;28;20119;-41
2022/03/11 06:33:51;;;;;;;26.23;15.25;;;2.80;99.90;;;;;;5049619;28;20057;-43
2022/03/11 06:36:17;;;;;;;24.85;14.68;;;2.80;99.90;;;;;;5048976;28;20055;-43
2022/03/11 06:38:43;;;;;;;28.48;16.40;;;2.90;99.90;;;;;;5050080;28;20400;-41
2022/03/11 06:41:08;;;;;;;26.52;15.10;;;2.90;99.90;;;;;;5050225;28;20110;-45
2022/03/11 06:43:34;;;;;;;26.63;14.90;;;2.90;99.90;;;;;;5050037;28;20168;-42
2022/03/11 06:46:00;;;;;;;30.45;15.55;;;2.90;99.90;;;;;;5048585;28;20064;-44
2022/03/11 06:48:25;;;;;;;25.98;15.75;;;2.90;99.90;;;;;;5047540;28;20103;-40
2022/03/11 06:50:52;;;;;;;24.88;14.77;;;3.00;99.90;;;;;;5050020;28;20431;-41
2022/03/11 06:53:18;;;;;;;28.88;14.90;;;3.00;99.90;;;;;;5049268;28;20041;-42
2022/03/11 06:55:44;;;;;;;28.65;15.85;;;3.00;99.90;;;;;;5050016;28;20072;-41
2022/03/11 06:58:09;;;;;;;26.70;15.75;;;3.10;99.90;;;;;;5049201;28;20075;-43
2022/03/11 07:00:35;;;;;;;27.17;15.32;;;3.10;99.90;;;;;;5052331;28;20076;-40
2022/03/11 07:03:02;;;;;;;28.25;15.80;;;3.10;99.90;;;;;;5052923;28;20037;-41
2022/03/11 07:05:28;;;;;;;26.63;15.88;;;3.20;99.90;;;;;;5054103;28;20086;-41
2022/03/11 07:07:53;;;;;;;28.88;15.48;;;3.20;99.90;;;;;;5054051;28;20400;-44
2022/03/11 07:10:20;;;;;;;28.38;15.38;;;3.20;99.90;;;;;;5053783;28;20040;-42
2022/03/11 07:12:46;;;;;;;27.55;15.85;;;3.30;99.90;;;;;;5052416;28;20031;-40
2022/03/11 07:15:12;;;;;;;27.90;16.67;;;3.30;99.90;;;;;;5053969;28;20039;-43
2022/03/11 07:17:37;;;;;;;28.50;15.32;;;3.40;99.90;;;;;;5053823;28;20039;-41
2022/03/11 07:20:04;;;;;;;26.20;15.20;;;3.40;99.90;;;;;;5052390;28;20090;-41
2022/03/11 07:22:32;;;;;;;25.42;15.48;;;3.50;99.90;;;;;;5049812;28;20029;-42
2022/03/11 07:24:58;;;;;;;28.10;15.88;;;3.50;99.90;;;;;;5053507;28;20033;-40
2022/03/11 07:27:24;;;;;;;28.33;15.50;;;3.60;99.90;;;;;;5053229;28;20049;-43
2022/03/11 07:29:50;;;;;;;26.75;15.45;;;3.70;99.90;;;;;;5053341;28;20409;-42
2022/03/11 07:32:17;;;;;;;26.35;15.75;;;3.80;99.90;;;;;;5053244;28;20156;-43
2022/03/11 07:34:43;;;;;;;27.58;15.75;;;3.80;99.90;;;;;;5053330;28;20033;-44
2022/03/11 07:37:12;;;;;;;28.00;15.80;;;3.90;99.90;;;;;;5053246;28;20044;-45
2022/03/11 07:39:41;;;;;;;24.85;15.25;;;4.00;99.90;;;;;;5053245;28;20049;-42
2022/03/11 07:42:07;;;;;;;29.50;15.55;;;4.00;99.90;;;;;;5053294;28;20094;-40
2022/03/11 07:44:35;;;;;;;27.48;15.77;;;4.10;99.90;;;;;;5043949;28;20066;-43
2022/03/11 07:47:01;;;;;;;28.42;15.88;;;4.20;99.90;;;;;;5048986;28;20037;-41
2022/03/11 07:49:30;;;;;;;27.05;15.18;;;4.40;99.90;;;;;;5042267;28;20052;-43
2022/03/11 07:51:55;;;;;;;25.88;14.65;;;4.40;99.90;;;;;;5043559;28;20044;-42
2022/03/11 07:54:21;;;;;;;23.75;15.05;;;4.60;99.90;;;;;;5045310;28;20029;-43
2022/03/11 07:56:47;;;;;;;24.88;14.50;;;4.70;99.90;;;;;;5043608;28;20041;-43
2022/03/11 07:59:13;;;;;;;25.33;13.88;;;4.80;99.90;;;;;;5042940;28;20496;-43
2022/03/11 08:01:38;;;;;;;25.63;15.40;;;4.90;99.90;;;;;;5039486;28;20404;-41
2022/03/11 08:04:05;;;;;;;23.75;14.55;;;5.10;99.90;;;;;;5040318;28;20029;-42
2022/03/11 08:06:31;;;;;;;26.40;14.85;;;5.10;99.90;;;;;;5065631;28;20380;-42
2022/03/11 08:08:57;;;;;;;25.95;14.68;;;5.20;99.90;;;;;;5040288;28;20451;-45
2022/03/11 08:11:23;;;;;;;25.77;14.93;;;5.30;99.90;;;;;;5041995;28;20057;-43
2022/03/11 08:13:49;;;;;;;23.80;13.55;;;5.40;99.90;;;;;;5044485;28;20047;-45
2022/03/11 08:16:15;;;;;;;25.00;14.93;;;5.40;99.90;;;;;;5042091;28;20388;-40
2022/03/11 08:18:43;;;;;;;24.83;14.73;;;5.60;99.90;;;;;;5059328;28;20037;-42
2022/03/11 08:21:10;;;;;;;24.48;14.73;;;5.70;99.90;;;;;;5039453;28;20509;-41
2022/03/11 08:23:36;;;;;;;26.83;14.27;;;5.70;99.90;;;;;;5043146;28;20041;-42
2022/03/11 08:26:02;;;;;;;26.65;14.77;;;5.80;99.90;;;;;;5043491;28;20040;-41
2022/03/11 08:28:28;;;;;;;25.52;14.30;;;5.90;99.90;;;;;;5042805;28;20484;-44
2022/03/11 08:30:54;;;;;;;27.02;13.82;;;5.90;99.90;;;;;;5044122;28;20039;-42
2022/03/11 08:33:22;;;;;;;26.85;13.27;;;6.00;99.90;;;;;;5040622;28;20048;-41
2022/03/11 08:35:49;;;;;;;23.40;14.23;;;6.20;99.90;;;;;;5041794;28;20045;-42
2022/03/11 08:38:16;;;;;;;27.10;15.05;;;6.20;99.90;;;;;;5042107;28;20040;-45
2022/03/11 08:40:42;;;;;;;25.45;14.25;;;6.30;99.90;;;;;;5041375;28;20487;-44
2022/03/11 08:43:09;;;;;;;24.23;14.40;;;6.40;99.90;;;;;;5047353;28;20037;-42
2022/03/11 08:45:35;;;;;;;26.38;14.07;;;6.50;99.90;;;;;;5043064;28;20431;-44
2022/03/11 08:48:01;;;;;;;25.15;14.60;;;6.50;99.90;;;;;;5043478;28;21000;-39
2022/03/11 08:50:26;;;;;;;24.95;13.55;;;6.60;99.90;;;;;;5045615;28;20040;-43
2022/03/11 08:52:53;;;;;;;23.48;14.13;;;6.70;99.90;;;;;;5051761;28;20040;-43
2022/03/11 08:55:18;;;;;;;24.83;13.82;;;6.80;99.90;;;;;;5051363;28;20178;-41
2022/03/11 08:57:49;;;;;;;27.38;14.50;;;7.00;99.90;;;;;;5049512;28;20131;-38
2022/03/11 09:00:16;;;;;;;25.50;13.38;;;7.00;99.90;;;;;;5049980;28;20485;-41
2022/03/11 09:02:43;;;;;;;20.90;13.45;;;7.10;99.90;;;;;;5049646;28;20044;-43
2022/03/11 09:05:09;;;;;;;22.33;13.60;;;7.10;99.90;;;;;;5045954;28;20051;-40
2022/03/11 09:07:35;;;;;;;22.17;13.52;;;7.30;99.90;;;;;;5048421;28;20469;-41
2022/03/11 09:10:03;;;;;;;24.83;14.10;;;7.30;99.90;;;;;;5051035;28;20033;-41
2022/03/11 09:12:28;;;;;;;23.38;12.48;;;7.50;99.90;;;;;;5047273;28;20037;-42
2022/03/11 09:14:54;;;;;;;20.92;12.88;;;7.60;99.90;;;;;;5048094;28;20480;-41
2022/03/11 09:17:20;;;;;;;24.45;14.40;;;7.70;99.90;;;;;;5048182;28;20068;-42
2022/03/11 09:19:45;;;;;;;24.90;13.68;;;7.70;99.90;;;;;;5046237;28;20062;-40
2022/03/11 09:22:14;;;;;;;24.45;13.30;;;7.90;99.90;;;;;;5049931;28;20491;-43
2022/03/11 09:24:41;;;;;;;21.27;13.32;;;7.90;99.90;;;;;;5050855;28;20040;-44
2022/03/11 09:27:09;;;;;;;25.75;14.32;;;8.00;99.90;;;;;;5050530;28;20044;-44
2022/03/11 09:29:35;;;;;;;23.80;13.38;;;8.10;99.90;;;;;;5050688;28;20106;-41
2022/03/11 09:32:02;;;;;;;22.13;13.90;;;8.10;99.90;;;;;;5049088;28;20047;-43
2022/03/11 09:34:27;;;;;;;25.50;14.50;;;8.20;99.90;;;;;;5050946;28;20476;-44
2022/03/11 09:36:53;;;;;;;23.55;14.80;;;8.20;99.90;;;;;;5041370;28;20099;-40
2022/03/11 09:39:21;;;;;;;22.33;13.88;;;8.30;99.90;;;;;;5046921;28;20912;-44
2022/03/11 09:41:47;;;;;;;25.25;13.45;;;8.30;99.90;;;;;;5046517;28;20107;-42
2022/03/11 09:44:14;;;;;;;23.77;13.88;;;8.40;99.90;;;;;;5043338;28;20572;-41
2022/03/11 09:46:41;;;;;;;24.05;14.10;;;8.50;99.90;;;;;;5047893;28;20036;-45
2022/03/11 09:49:08;;;;;;;25.77;13.23;;;8.60;99.90;;;;;;5047564;28;20393;-41
2022/03/11 09:51:35;;;;;;;20.05;12.70;;;8.70;99.60;;;;;;5050358;28;20419;-41
2022/03/11 09:54:01;;;;;;;23.52;13.80;;;8.70;99.20;;;;;;5050088;28;20045;-42
2022/03/11 09:56:27;;;;;;;23.02;14.38;;;8.70;99.00;;;;;;5047992;28;20032;-41
2022/03/11 09:58:54;;;;;;;24.38;14.55;;;8.80;99.00;;;;;;5044089;28;20045;-40
2022/03/11 10:01:19;;;;;;;24.05;14.40;;;8.80;99.30;;;;;;5047396;28;20086;-43
2022/03/11 10:03:45;;;;;;;24.38;15.02;;;9.00;99.60;;;;;;5048688;28;20438;-44
2022/03/11 10:06:11;;;;;;;21.55;12.77;;;9.10;99.40;;;;;;5042676;28;20043;-41
2022/03/11 10:08:39;;;;;;;26.40;14.02;;;9.20;98.70;;;;;;5040084;28;20045;-44
2022/03/11 10:11:24;;;;;;;24.17;14.45;;;9.20;98.90;;;;;;5042869;28;20045;-41
2022/03/11 10:14:02;;;;;;;24.50;13.70;;;9.30;98.20;;;;;;5050297;28;20476;-42
2022/03/11 10:16:30;;;;;;;23.45;13.63;;;9.40;98.70;;;;;;5049340;28;20044;-44
2022/03/11 10:19:07;;;;;;;24.55;14.35;;;9.40;97.70;;;;;;5049525;28;20033;-41
2022/03/11 10:21:39;;;;;;;24.67;13.57;;;9.40;96.90;;;;;;5049264;28;20029;-41
2022/03/11 10:24:07;;;;;;;23.15;14.15;;;9.50;96.90;;;;;;5047414;28;20044;-41
2022/03/11 10:26:48;;;;;;;23.52;13.68;;;9.40;96.50;;;;;;5049625;28;20044;-40
2022/03/11 10:29:34;;;;;;;25.48;14.13;;;9.60;96.80;;;;;;5049293;28;20043;-39
2022/03/11 10:32:00;;;;;;;23.50;14.18;;;9.50;96.50;;;;;;5048999;28;20049;-44
2022/03/11 10:34:36;;;;;;;24.20;13.60;;;9.60;96.10;;;;;;5042987;28;20049;-42
2022/03/11 10:37:09;;;;;;;23.13;13.35;;;9.60;96.80;;;;;;5041996;28;20038;-43
2022/03/11 10:39:39;;;;;;;23.65;14.35;;;9.70;94.90;;;;;;5038578;28;20385;-42
2022/03/11 10:42:23;;;;;;;22.08;13.57;;;9.70;96.00;;;;;;5046053;28;20172;-41
2022/03/11 10:44:59;;;;;;;22.42;13.35;;;9.90;95.70;;;;;;5047321;28;20496;-40
2022/03/11 10:47:29;;;;;;;23.80;13.95;;;10.10;94.80;;;;;;5043192;28;20041;-44
2022/03/11 10:49:57;;;;;;;24.83;14.35;;;10.20;94.40;;;;;;5045408;28;20048;-46
2022/03/11 10:52:36;;;;;;;25.65;15.07;;;10.20;94.00;;;;;;5043297;28;20126;-43
2022/03/11 10:55:17;;;;;;;22.15;13.90;;;10.40;94.40;;;;;;5043125;28;20033;-42
2022/03/11 10:57:43;;;;;;;23.70;14.88;;;10.60;93.90;;;;;;5063981;28;20052;-41
2022/03/11 11:00:21;;;;;;;26.33;14.88;;;10.80;95.40;;;;;;5047934;28;20040;-44
2022/03/11 11:02:55;;;;;;;23.98;14.15;;;10.70;92.90;;;;;;5048243;28;20029;-39
2022/03/11 11:05:21;;;;;;;23.98;14.65;;;10.80;92.20;;;;;;5048727;28;20076;-43
2022/03/11 11:07:48;;;;;;;25.42;14.90;;;10.90;92.20;;;;;;5044808;28;20059;-43
2022/03/11 11:10:17;;;;;;;23.17;13.90;;;10.90;92.10;;;;;;5048344;28;20102;-41
2022/03/11 11:12:44;;;;;;;23.80;14.43;;;11.20;92.50;;;;;;5046539;28;20048;-44
2022/03/11 11:15:11;;;;;;;24.90;14.35;;;11.20;93.10;;;;;;5048286;28;20044;-42
2022/03/11 11:17:39;;;;;;;24.23;14.68;;;11.30;91.30;;;;;;5048159;28;20953;-43
2022/03/11 11:20:20;;;;;;;24.65;14.27;;;11.20;90.90;;;;;;5047433;28;20493;-40
2022/03/11 11:22:48;;;;;;;23.40;14.80;;;11.20;90.20;;;;;;5048759;28;20056;-42
2022/03/11 11:25:17;;;;;;;21.35;13.70;;;11.40;90.80;;;;;;5048612;28;20036;-45
2022/03/11 11:27:44;;;;;;;25.05;15.13;;;11.40;89.20;;;;;;5042766;28;20081;-41
2022/03/11 11:30:10;;;;;;;26.60;14.90;;;11.60;90.30;;;;;;5047611;28;20067;-41
2022/03/11 11:32:38;;;;;;;25.33;15.15;;;11.70;91.10;;;;;;5048108;28;20140;-40
2022/03/11 11:35:22;;;;;;;26.63;15.07;;;11.70;90.60;;;;;;5048735;28;20045;-44
2022/03/11 11:37:48;;;;;;;23.13;14.30;;;11.90;88.90;;;;;;5048706;28;20049;-41
2022/03/11 11:40:32;;;;;;;23.45;13.90;;;12.10;88.10;;;;;;5041464;28;20037;-42
2022/03/11 11:43:28;;;;;;;23.25;14.65;;;12.20;87.10;;;;;;5063522;28;20037;-44
2022/03/11 11:46:08;;;;;;;23.75;13.88;;;12.50;85.30;;;;;;5048939;28;20033;-41
2022/03/11 11:51:04;;;;;;;23.02;13.82;;;12.50;84.90;;;;;;5046485;28;20049;-43
2022/03/11 11:53:37;;;;;;;22.25;14.43;;;12.60;83.00;;;;;;5050363;28;20041;-41
2022/03/11 11:56:29;;;;;;;25.17;15.45;;;12.90;83.30;;;;;;5044448;28;20060;-41
2022/03/11 11:59:08;;;;;;;25.65;14.75;;;13.00;79.70;;;;;;5050150;28;20079;-41
2022/03/11 12:01:40;;;;;;;20.58;12.93;;;13.10;83.10;;;;;;5051343;28;20037;-40
2022/03/11 12:04:30;;;;;;;21.70;14.45;;;13.40;78.90;;;;;;5052513;28;20411;-42
2022/03/11 12:07:06;;;;;;;26.40;14.07;;;13.40;80.10;;;;;;5051813;28;20064;-43
2022/03/11 12:09:38;;;;;;;22.90;14.20;;;13.30;76.80;;;;;;5047751;28;20102;-41
2022/03/11 12:12:07;;;;;;;26.20;15.27;;;13.20;74.90;;;;;;5051427;28;20103;-42
2022/03/11 12:14:53;;;;;;;23.67;14.57;;;13.20;77.20;;;;;;5051513;28;20049;-41
2022/03/11 12:17:37;;;;;;;26.88;15.00;;;13.50;78.70;;;;;;5052203;28;20041;-41
2022/03/11 12:20:22;;;;;;;;;;;13.80;80.00;;;;;;5052632;28;20120;-42
2022/03/11 12:23:05;;;;;;;22.25;14.60;;;13.90;78.10;;;;;;5052310;28;19920;-42
2022/03/11 12:25:37;;;;;;;23.20;14.65;;;14.10;79.70;;;;;;5052276;28;20555;-41
2022/03/11 12:28:24;;;;;;;24.17;15.10;;;14.00;76.20;;;;;;5051947;28;20119;-41
2022/03/11 12:30:50;;;;;;;25.20;15.27;;;14.10;72.90;;;;;;5052485;28;20141;-42
2022/03/11 12:33:20;;;;;;;22.85;15.07;;;14.00;73.50;;;;;;5051999;28;20045;-40
2022/03/11 12:35:48;;;;;;;23.05;13.88;;;14.30;71.70;;;;;;5052197;28;20037;-43
2022/03/11 12:38:19;;;;;;;25.10;15.50;;;14.40;70.30;;;;;;5050929;28;20534;-41
2022/03/11 12:40:46;;;;;;;24.80;15.20;;;14.20;68.40;;;;;;5051973;28;20409;-42